MEA225 OLBA-EKCH
Flight info
| Callsign | MEA225 |
|---|---|
| Flight time | N/A |
| Altitude | 40000 |
| Route | BALMA DCT VESAR UL619 MAKOL DCT ARGES DCT MOBRA DCT KARIL DCT KEKED DCT REGTO DCT MAKOV DCT ARKUG DCT ELPOL DCT TIDVU |
| Aircraft | A339/H-SADE1E2E3GHIJ3J5M1P2RWXY/LB2D1 |
Departure
| Time | 2026-05-04 10:08 |
|---|---|
| Airport | Beirut Rafic Hariri International Airport (OLBA) |
Arrival
| Time | N/A |
|---|---|
| Airport | Copenhagen Kastrup Airport (EKCH) |
| Time | Latitude | Longitude | Altitude | Speed | Heading |
|---|---|---|---|---|---|
| 2026-05-04 09:49 | 33.82499 | 35.49114 | 60 ft | 0 kts | 104° |
| 2026-05-04 10:00 | 33.82510 | 35.49058 | 60 ft | 2 kts | 104° |
| 2026-05-04 10:00 | 33.82514 | 35.49040 | 59 ft | 2 kts | 104° |
| 2026-05-04 10:02 | 33.82542 | 35.48983 | 54 ft | 0 kts | 174° |
| 2026-05-04 10:04 | 33.82244 | 35.49066 | 63 ft | 19 kts | 118° |
| 2026-05-04 10:04 | 33.82206 | 35.49224 | 63 ft | 17 kts | 105° |
| 2026-05-04 10:04 | 33.82174 | 35.49359 | 65 ft | 13 kts | 106° |
| 2026-05-04 10:04 | 33.82127 | 35.49490 | 63 ft | 17 kts | 117° |
| 2026-05-04 10:05 | 33.82185 | 35.49608 | 64 ft | 22 kts | 37° |
| 2026-05-04 10:05 | 33.82335 | 35.49736 | 64 ft | 31 kts | 35° |
| 2026-05-04 10:05 | 33.82488 | 35.49864 | 64 ft | 25 kts | 34° |
| 2026-05-04 10:05 | 33.82540 | 35.49959 | 64 ft | 9 kts | 99° |
| 2026-05-04 10:06 | 33.82514 | 35.50033 | 71 ft | 10 kts | 116° |
| 2026-05-04 10:06 | 33.82483 | 35.50077 | 75 ft | 10 kts | 130° |
| 2026-05-04 10:06 | 33.82440 | 35.50102 | 70 ft | 6 kts | 179° |
| 2026-05-04 10:08 | 33.80747 | 35.48807 | 596 ft | 154 kts | 213° |
| 2026-05-04 10:08 | 33.79972 | 35.47940 | 1450 ft | 158 kts | 231° |
| 2026-05-04 10:08 | 33.79523 | 35.46755 | 2318 ft | 163 kts | 243° |
| 2026-05-04 10:08 | 33.79181 | 35.45356 | 2845 ft | 185 kts | 257° |
| 2026-05-04 10:09 | 33.79393 | 35.43696 | 3240 ft | 222 kts | 287° |
| 2026-05-04 10:09 | 33.79990 | 35.42627 | 3527 ft | 243 kts | 303° |
| 2026-05-04 10:09 | 33.81464 | 35.41362 | 3789 ft | 280 kts | 331° |
| 2026-05-04 10:09 | 33.83349 | 35.40705 | 4599 ft | 281 kts | 339° |
| 2026-05-04 10:10 | 33.85242 | 35.40149 | 5398 ft | 280 kts | 338° |
| 2026-05-04 10:10 | 33.87108 | 35.39462 | 6131 ft | 280 kts | 333° |
| 2026-05-04 10:10 | 33.88903 | 35.38632 | 6838 ft | 280 kts | 330° |
| 2026-05-04 10:10 | 33.90689 | 35.37692 | 7566 ft | 281 kts | 328° |
| 2026-05-04 10:11 | 33.92468 | 35.36698 | 8284 ft | 283 kts | 327° |
| 2026-05-04 10:11 | 33.94262 | 35.35677 | 8999 ft | 286 kts | 327° |
| 2026-05-04 10:11 | 33.96080 | 35.34642 | 9736 ft | 289 kts | 327° |
| 2026-05-04 10:11 | 33.97912 | 35.33601 | 10330 ft | 296 kts | 327° |